Gas Grouper — V7TZ2 — position and weather

sailwx.info

Track history (hours):
 
Tides and Currents Weather Stations Pressure Air Temp Water Temp Dewpoint Dewpoint Depression Visibility Wind Speed Wind Dir Waves Ship Positions

Gas Grouper

Last reported at 2017-Jan-24 03:32 UTC. Time now 2017-Jan-24 23:29 UTC.
Position N 37°56' E 024°38'.

Length 174 m; draft 7.2 m.

Type: Ship (hazmat cat D). MMSI: 538003910.

Date/timePositionNaut miles runAvg speedWind from/ knotsBaromVisibWave heightAir tempDewpointWater temp
2017-Jan-24 03:32N 37°56' E 024°38'1311.5
2017-Jan-24 02:22N 37°44' E 024°32'  
2017-Jan-21 21:33N 36°17' E 014°48'8 7.9
2017-Jan-21 20:33N 36°19' E 014°39'8 8.0
2017-Jan-21 19:33N 36°21' E 014°29'9 8.6
2017-Jan-21 18:33N 36°24' E 014°19'9 9.0
2017-Jan-21 17:33N 36°26' E 014°08'9 8.8
2017-Jan-21 16:33N 36°29' E 013°58'9 8.6
2017-Jan-21 15:33N 36°31' E 013°48'7 7.3
2017-Jan-21 14:34N 36°33' E 013°39'381 9.2
2017-Jan-19 21:18N 37°17' E 005°45'1013.1
2017-Jan-19 20:34N 37°16' E 005°33'52312.4
2017-Jan-18 02:33N 36°00' W 005°12'1716.6
2017-Jan-18 01:34N 35°57' W 005°32'1616.0
2017-Jan-18 00:33N 35°55' W 005°52'21113.8
2017-Jan-17 09:16N 37°24' W 009°49'1115.7
2017-Jan-17 08:34N 37°35' W 009°52'1715.7
2017-Jan-17 07:27N 37°52' W 009°57'1415.9
2017-Jan-17 06:34N 38°06' W 010°01'1615.8
2017-Jan-17 05:34N 38°21' W 010°06'1615.6
2017-Jan-17 04:33N 38°36' W 010°11'1515.5
2017-Jan-17 03:33N 38°52' W 010°13'1514.7
2017-Jan-17 02:33N 39°06' W 010°13'74614.5
2017-Jan-14 23:11N 50°08' W 002°07'712.0
2017-Jan-14 22:33N 50°10' W 001°56'1111.2
2017-Jan-14 21:33N 50°13' W 001°39'1111.4
2017-Jan-14 20:33N 50°16' W 001°22'4414.8
2017-Jan-14 17:33N 50°28' W 000°15'1716.9
2017-Jan-14 16:33N 50°33' E 000°10'1716.7
2017-Jan-14 15:33N 50°38' E 000°35'1615.6
2017-Jan-14 14:33N 50°48' E 000°55'1414.2
2017-Jan-14 13:33N 50°57' E 001°12'1312.7
2017-Jan-14 12:33N 51°04' E 001°28'1414.0
2017-Jan-14 11:34N 51°13' E 001°45'1514.8
2017-Jan-14 10:33N 51°25' E 001°60'1413.6
2017-Jan-14 09:33N 51°21' E 002°20'1515.2
2017-Jan-14 08:33N 51°23' E 002°44'1313.3
2017-Jan-14 07:34N 51°24' E 003°05'1615.7
2017-Jan-14 06:34N 51°25' E 003°30'9 9.1
2017-Jan-14 05:33N 51°22' E 003°44'1111.2
2017-Jan-14 04:33N 51°24' E 004°02'10 9.8
2017-Jan-14 03:33N 51°21' E 004°17'  
Track history (hours):
 
Tides and Currents Weather Stations Pressure Air Temp Water Temp Dewpoint Dewpoint Depression Visibility Wind Speed Wind Dir Waves Ship Positions

Gas Grouper

Last reported at 2017-Jan-24 03:32 UTC. Time now 2017-Jan-24 23:29 UTC.
Position N 37°56' E 024°38'.

Length 174 m; draft 7.2 m.

Type: Ship (hazmat cat D). MMSI: 538003910.

Date/timePositionNaut miles runAvg speedWind from/ knotsBaromVisibWave heightAir tempDewpointWater temp
2017-Jan-24 03:32N 37°56' E 024°38'1311.5
2017-Jan-24 02:22N 37°44' E 024°32'  
2017-Jan-21 21:33N 36°17' E 014°48'8 7.9
2017-Jan-21 20:33N 36°19' E 014°39'8 8.0
2017-Jan-21 19:33N 36°21' E 014°29'9 8.6
2017-Jan-21 18:33N 36°24' E 014°19'9 9.0
2017-Jan-21 17:33N 36°26' E 014°08'9 8.8
2017-Jan-21 16:33N 36°29' E 013°58'9 8.6
2017-Jan-21 15:33N 36°31' E 013°48'7 7.3
2017-Jan-21 14:34N 36°33' E 013°39'381 9.2
2017-Jan-19 21:18N 37°17' E 005°45'1013.1
2017-Jan-19 20:34N 37°16' E 005°33'52312.4
2017-Jan-18 02:33N 36°00' W 005°12'1716.6
2017-Jan-18 01:34N 35°57' W 005°32'1616.0
2017-Jan-18 00:33N 35°55' W 005°52'21113.8
2017-Jan-17 09:16N 37°24' W 009°49'1115.7
2017-Jan-17 08:34N 37°35' W 009°52'1715.7
2017-Jan-17 07:27N 37°52' W 009°57'1415.9
2017-Jan-17 06:34N 38°06' W 010°01'1615.8
2017-Jan-17 05:34N 38°21' W 010°06'1615.6
2017-Jan-17 04:33N 38°36' W 010°11'1515.5
2017-Jan-17 03:33N 38°52' W 010°13'1514.7
2017-Jan-17 02:33N 39°06' W 010°13'74614.5
2017-Jan-14 23:11N 50°08' W 002°07'712.0
2017-Jan-14 22:33N 50°10' W 001°56'1111.2
2017-Jan-14 21:33N 50°13' W 001°39'1111.4
2017-Jan-14 20:33N 50°16' W 001°22'4414.8
2017-Jan-14 17:33N 50°28' W 000°15'1716.9
2017-Jan-14 16:33N 50°33' E 000°10'1716.7
2017-Jan-14 15:33N 50°38' E 000°35'1615.6
2017-Jan-14 14:33N 50°48' E 000°55'1414.2
2017-Jan-14 13:33N 50°57' E 001°12'1312.7
2017-Jan-14 12:33N 51°04' E 001°28'1414.0
2017-Jan-14 11:34N 51°13' E 001°45'1514.8
2017-Jan-14 10:33N 51°25' E 001°60'1413.6
2017-Jan-14 09:33N 51°21' E 002°20'1515.2
2017-Jan-14 08:33N 51°23' E 002°44'1313.3
2017-Jan-14 07:34N 51°24' E 003°05'1615.7
2017-Jan-14 06:34N 51°25' E 003°30'9 9.1
2017-Jan-14 05:33N 51°22' E 003°44'1111.2
2017-Jan-14 04:33N 51°24' E 004°02'10 9.8
2017-Jan-14 03:33N 51°21' E 004°17'  

Dump ship's entire track history